sensor_id;sensor_type;location;lat;lon;timestamp;temperature;humidity
15638;DHT22;26604;53.596;10.042;2023-03-05T00:00:13;3.50;99.90
15638;DHT22;26604;53.596;10.042;2023-03-05T00:02:40;3.50;99.90
15638;DHT22;26604;53.596;10.042;2023-03-05T00:05:07;3.40;99.90
15638;DHT22;26604;53.596;10.042;2023-03-05T00:07:36;3.40;99.90
15638;DHT22;26604;53.596;10.042;2023-03-05T00:10:03;3.40;99.90
15638;DHT22;26604;53.596;10.042;2023-03-05T00:12:30;3.50;99.90
15638;DHT22;26604;53.596;10.042;2023-03-05T00:14:57;3.50;99.90
15638;DHT22;26604;53.596;10.042;2023-03-05T00:17:23;3.40;99.90
15638;DHT22;26604;53.596;10.042;2023-03-05T00:19:50;3.50;99.90
15638;DHT22;26604;53.596;10.042;2023-03-05T00:22:17;3.50;99.90
15638;DHT22;26604;53.596;10.042;2023-03-05T00:24:45;3.50;99.90
15638;DHT22;26604;53.596;10.042;2023-03-05T00:27:11;3.60;99.90
15638;DHT22;26604;53.596;10.042;2023-03-05T00:29:39;3.60;99.90
15638;DHT22;26604;53.596;10.042;2023-03-05T00:32:06;3.70;99.90
15638;DHT22;26604;53.596;10.042;2023-03-05T00:34:32;3.80;99.90
15638;DHT22;26604;53.596;10.042;2023-03-05T00:37:00;3.80;99.90
15638;DHT22;26604;53.596;10.042;2023-03-05T00:39:27;3.80;99.90
15638;DHT22;26604;53.596;10.042;2023-03-05T00:41:55;3.80;99.90
15638;DHT22;26604;53.596;10.042;2023-03-05T00:44:22;3.80;99.90
15638;DHT22;26604;53.596;10.042;2023-03-05T00:46:48;3.70;99.90
15638;DHT22;26604;53.596;10.042;2023-03-05T00:49:15;3.60;99.90
15638;DHT22;26604;53.596;10.042;2023-03-05T00:51:42;3.50;99.90
15638;DHT22;26604;53.596;10.042;2023-03-05T00:54:08;3.40;99.90
15638;DHT22;26604;53.596;10.042;2023-03-05T00:56:35;3.40;99.90
15638;DHT22;26604;53.596;10.042;2023-03-05T00:59:03;3.20;99.90
15638;DHT22;26604;53.596;10.042;2023-03-05T01:01:30;3.20;99.90
15638;DHT22;26604;53.596;10.042;2023-03-05T01:03:56;3.20;99.90
15638;DHT22;26604;53.596;10.042;2023-03-05T01:06:25;3.20;99.90
15638;DHT22;26604;53.596;10.042;2023-03-05T01:08:52;3.20;99.90
15638;DHT22;26604;53.596;10.042;2023-03-05T01:11:18;3.20;99.90
15638;DHT22;26604;53.596;10.042;2023-03-05T01:13:45;3.20;99.90
15638;DHT22;26604;53.596;10.042;2023-03-05T01:19:22;3.10;99.90
15638;DHT22;26604;53.596;10.042;2023-03-05T01:21:49;3.00;99.90
15638;DHT22;26604;53.596;10.042;2023-03-05T01:24:16;3.00;99.90
15638;DHT22;26604;53.596;10.042;2023-03-05T01:26:42;3.00;99.90
15638;DHT22;26604;53.596;10.042;2023-03-05T01:29:09;2.90;99.90
15638;DHT22;26604;53.596;10.042;2023-03-05T01:31:36;2.90;99.90
15638;DHT22;26604;53.596;10.042;2023-03-05T01:34:02;2.90;99.90
15638;DHT22;26604;53.596;10.042;2023-03-05T01:36:31;2.90;99.90
15638;DHT22;26604;53.596;10.042;2023-03-05T01:38:57;2.90;99.90
15638;DHT22;26604;53.596;10.042;2023-03-05T01:41:24;2.90;99.90
15638;DHT22;26604;53.596;10.042;2023-03-05T01:43:51;2.90;99.90
15638;DHT22;26604;53.596;10.042;2023-03-05T01:46:22;2.90;99.90
15638;DHT22;26604;53.596;10.042;2023-03-05T01:48:52;2.80;99.90
15638;DHT22;26604;53.596;10.042;2023-03-05T01:51:19;2.80;99.90
15638;DHT22;26604;53.596;10.042;2023-03-05T01:53:49;2.80;99.90
15638;DHT22;26604;53.596;10.042;2023-03-05T01:56:16;2.80;99.90
15638;DHT22;26604;53.596;10.042;2023-03-05T01:58:43;2.80;99.90
15638;DHT22;26604;53.596;10.042;2023-03-05T02:01:10;2.80;99.90
15638;DHT22;26604;53.596;10.042;2023-03-05T02:03:37;2.80;99.90
15638;DHT22;26604;53.596;10.042;2023-03-05T02:06:04;3.90;99.90
15638;DHT22;26604;53.596;10.042;2023-03-05T02:08:31;2.90;99.90
15638;DHT22;26604;53.596;10.042;2023-03-05T02:10:59;2.80;99.90
15638;DHT22;26604;53.596;10.042;2023-03-05T02:13:27;2.80;99.90
15638;DHT22;26604;53.596;10.042;2023-03-05T02:15:56;2.80;99.90
15638;DHT22;26604;53.596;10.042;2023-03-05T02:18:23;2.70;99.90
15638;DHT22;26604;53.596;10.042;2023-03-05T02:20:51;2.70;99.90
15638;DHT22;26604;53.596;10.042;2023-03-05T02:23:20;2.60;99.90
15638;DHT22;26604;53.596;10.042;2023-03-05T02:25:47;2.50;99.90
15638;DHT22;26604;53.596;10.042;2023-03-05T02:28:15;2.40;99.90
15638;DHT22;26604;53.596;10.042;2023-03-05T02:30:43;2.40;99.90
15638;DHT22;26604;53.596;10.042;2023-03-05T02:33:10;2.40;99.90
15638;DHT22;26604;53.596;10.042;2023-03-05T02:35:38;2.40;99.90
15638;DHT22;26604;53.596;10.042;2023-03-05T02:38:05;2.40;99.90
15638;DHT22;26604;53.596;10.042;2023-03-05T02:40:33;2.40;99.90
15638;DHT22;26604;53.596;10.042;2023-03-05T02:42:59;2.40;99.90
15638;DHT22;26604;53.596;10.042;2023-03-05T02:45:26;2.40;99.90
15638;DHT22;26604;53.596;10.042;2023-03-05T02:47:52;2.50;99.90
15638;DHT22;26604;53.596;10.042;2023-03-05T02:50:20;2.50;99.90
15638;DHT22;26604;53.596;10.042;2023-03-05T02:52:46;2.50;99.90
15638;DHT22;26604;53.596;10.042;2023-03-05T02:55:14;2.50;99.90
15638;DHT22;26604;53.596;10.042;2023-03-05T02:57:42;2.50;99.90
15638;DHT22;26604;53.596;10.042;2023-03-05T03:00:09;2.50;99.90
15638;DHT22;26604;53.596;10.042;2023-03-05T03:02:36;2.50;99.90
15638;DHT22;26604;53.596;10.042;2023-03-05T03:05:03;2.50;99.90
15638;DHT22;26604;53.596;10.042;2023-03-05T03:07:30;2.50;99.90
15638;DHT22;26604;53.596;10.042;2023-03-05T03:09:58;2.40;99.90
15638;DHT22;26604;53.596;10.042;2023-03-05T03:12:25;2.40;99.90
15638;DHT22;26604;53.596;10.042;2023-03-05T03:14:53;2.40;99.90
15638;DHT22;26604;53.596;10.042;2023-03-05T03:17:20;2.30;99.90
15638;DHT22;26604;53.596;10.042;2023-03-05T03:19:46;2.30;99.90
15638;DHT22;26604;53.596;10.042;2023-03-05T03:22:14;2.30;99.90
15638;DHT22;26604;53.596;10.042;2023-03-05T03:24:41;2.30;99.90
15638;DHT22;26604;53.596;10.042;2023-03-05T03:27:08;2.30;99.90
15638;DHT22;26604;53.596;10.042;2023-03-05T03:29:35;2.30;99.90
15638;DHT22;26604;53.596;10.042;2023-03-05T03:32:03;2.30;99.90
15638;DHT22;26604;53.596;10.042;2023-03-05T03:34:30;2.30;99.90
15638;DHT22;26604;53.596;10.042;2023-03-05T03:36:57;2.40;99.90
15638;DHT22;26604;53.596;10.042;2023-03-05T03:39:23;2.50;99.90
15638;DHT22;26604;53.596;10.042;2023-03-05T03:41:51;2.40;99.90
15638;DHT22;26604;53.596;10.042;2023-03-05T03:44:19;2.30;99.90
15638;DHT22;26604;53.596;10.042;2023-03-05T03:46:46;2.20;99.90
15638;DHT22;26604;53.596;10.042;2023-03-05T03:49:15;2.20;99.90
15638;DHT22;26604;53.596;10.042;2023-03-05T03:51:42;2.20;99.90
15638;DHT22;26604;53.596;10.042;2023-03-05T03:54:08;2.20;99.90
15638;DHT22;26604;53.596;10.042;2023-03-05T03:56:35;2.20;99.90
15638;DHT22;26604;53.596;10.042;2023-03-05T03:59:02;2.10;99.90
15638;DHT22;26604;53.596;10.042;2023-03-05T04:01:29;2.10;99.90
15638;DHT22;26604;53.596;10.042;2023-03-05T04:03:55;2.30;99.90
15638;DHT22;26604;53.596;10.042;2023-03-05T04:06:23;2.10;99.90
15638;DHT22;26604;53.596;10.042;2023-03-05T04:08:50;2.10;99.90
15638;DHT22;26604;53.596;10.042;2023-03-05T04:11:17;2.10;99.90
15638;DHT22;26604;53.596;10.042;2023-03-05T04:13:44;2.20;99.90
15638;DHT22;26604;53.596;10.042;2023-03-05T04:16:10;2.20;99.90
15638;DHT22;26604;53.596;10.042;2023-03-05T04:18:37;2.10;99.90
15638;DHT22;26604;53.596;10.042;2023-03-05T04:21:04;2.10;99.90
15638;DHT22;26604;53.596;10.042;2023-03-05T04:23:32;2.10;99.90
15638;DHT22;26604;53.596;10.042;2023-03-05T04:25:58;2.10;99.90
15638;DHT22;26604;53.596;10.042;2023-03-05T04:28:25;2.20;99.90
15638;DHT22;26604;53.596;10.042;2023-03-05T04:30:52;2.20;99.90
15638;DHT22;26604;53.596;10.042;2023-03-05T04:33:18;2.20;99.90
15638;DHT22;26604;53.596;10.042;2023-03-05T04:35:45;3.40;99.90
15638;DHT22;26604;53.596;10.042;2023-03-05T04:38:12;2.20;99.90
15638;DHT22;26604;53.596;10.042;2023-03-05T04:40:40;2.20;99.90
15638;DHT22;26604;53.596;10.042;2023-03-05T04:43:06;2.10;99.90
15638;DHT22;26604;53.596;10.042;2023-03-05T04:45:33;2.10;99.90
15638;DHT22;26604;53.596;10.042;2023-03-05T04:48:00;2.10;99.90
15638;DHT22;26604;53.596;10.042;2023-03-05T04:50:26;2.10;99.90
15638;DHT22;26604;53.596;10.042;2023-03-05T04:52:53;2.10;99.90
15638;DHT22;26604;53.596;10.042;2023-03-05T04:55:20;2.00;99.90
15638;DHT22;26604;53.596;10.042;2023-03-05T04:57:48;2.00;99.90
15638;DHT22;26604;53.596;10.042;2023-03-05T05:00:15;2.00;99.90
15638;DHT22;26604;53.596;10.042;2023-03-05T05:02:42;2.00;99.90
15638;DHT22;26604;53.596;10.042;2023-03-05T05:05:09;2.00;99.90
15638;DHT22;26604;53.596;10.042;2023-03-05T05:07:37;2.00;99.90
15638;DHT22;26604;53.596;10.042;2023-03-05T05:10:04;2.00;99.90
15638;DHT22;26604;53.596;10.042;2023-03-05T05:12:32;2.00;99.90
15638;DHT22;26604;53.596;10.042;2023-03-05T05:15:01;2.00;99.90
15638;DHT22;26604;53.596;10.042;2023-03-05T05:17:27;2.20;99.90
15638;DHT22;26604;53.596;10.042;2023-03-05T05:19:57;1.90;99.90
15638;DHT22;26604;53.596;10.042;2023-03-05T05:22:24;2.00;99.90
15638;DHT22;26604;53.596;10.042;2023-03-05T05:24:50;2.10;99.90
15638;DHT22;26604;53.596;10.042;2023-03-05T05:27:17;2.10;99.90
15638;DHT22;26604;53.596;10.042;2023-03-05T05:29:44;2.10;99.90
15638;DHT22;26604;53.596;10.042;2023-03-05T05:32:16;2.10;99.90
15638;DHT22;26604;53.596;10.042;2023-03-05T05:34:42;2.50;99.90
15638;DHT22;26604;53.596;10.042;2023-03-05T05:37:09;2.10;99.90
15638;DHT22;26604;53.596;10.042;2023-03-05T05:39:36;2.10;99.90
15638;DHT22;26604;53.596;10.042;2023-03-05T05:42:03;2.10;99.90
15638;DHT22;26604;53.596;10.042;2023-03-05T05:44:29;2.20;99.90
15638;DHT22;26604;53.596;10.042;2023-03-05T05:46:57;2.10;99.90
15638;DHT22;26604;53.596;10.042;2023-03-05T05:49:25;2.20;99.90
15638;DHT22;26604;53.596;10.042;2023-03-05T05:51:52;2.20;99.90
15638;DHT22;26604;53.596;10.042;2023-03-05T05:54:19;2.20;99.90
15638;DHT22;26604;53.596;10.042;2023-03-05T05:56:45;2.20;99.90
15638;DHT22;26604;53.596;10.042;2023-03-05T05:59:12;2.20;99.90
15638;DHT22;26604;53.596;10.042;2023-03-05T06:01:39;2.20;99.90
15638;DHT22;26604;53.596;10.042;2023-03-05T06:04:05;2.20;99.90
15638;DHT22;26604;53.596;10.042;2023-03-05T06:06:33;2.20;99.90
15638;DHT22;26604;53.596;10.042;2023-03-05T06:09:00;2.20;99.90
15638;DHT22;26604;53.596;10.042;2023-03-05T06:11:27;2.20;99.90
15638;DHT22;26604;53.596;10.042;2023-03-05T06:13:54;2.20;99.90
15638;DHT22;26604;53.596;10.042;2023-03-05T06:16:21;2.30;99.90
15638;DHT22;26604;53.596;10.042;2023-03-05T06:18:49;2.30;99.90
15638;DHT22;26604;53.596;10.042;2023-03-05T06:21:16;2.40;99.90
15638;DHT22;26604;53.596;10.042;2023-03-05T06:23:45;2.30;99.90
15638;DHT22;26604;53.596;10.042;2023-03-05T06:26:13;2.50;99.90
15638;DHT22;26604;53.596;10.042;2023-03-05T06:28:41;2.50;99.90
15638;DHT22;26604;53.596;10.042;2023-03-05T06:31:08;2.50;99.90
15638;DHT22;26604;53.596;10.042;2023-03-05T06:33:35;2.50;99.90
15638;DHT22;26604;53.596;10.042;2023-03-05T06:36:02;2.50;99.90
15638;DHT22;26604;53.596;10.042;2023-03-05T06:38:29;2.50;99.90
15638;DHT22;26604;53.596;10.042;2023-03-05T06:41:00;2.50;99.90
15638;DHT22;26604;53.596;10.042;2023-03-05T06:43:29;2.50;99.90
15638;DHT22;26604;53.596;10.042;2023-03-05T06:46:01;2.60;99.90
15638;DHT22;26604;53.596;10.042;2023-03-05T06:48:29;2.60;99.90
15638;DHT22;26604;53.596;10.042;2023-03-05T06:50:56;2.60;99.90
15638;DHT22;26604;53.596;10.042;2023-03-05T06:53:23;2.60;99.90
15638;DHT22;26604;53.596;10.042;2023-03-05T06:55:50;2.70;99.90
15638;DHT22;26604;53.596;10.042;2023-03-05T06:58:18;2.60;99.90
15638;DHT22;26604;53.596;10.042;2023-03-05T07:00:44;2.70;99.90
15638;DHT22;26604;53.596;10.042;2023-03-05T07:03:11;2.70;99.90
15638;DHT22;26604;53.596;10.042;2023-03-05T07:05:38;2.70;99.90
15638;DHT22;26604;53.596;10.042;2023-03-05T07:08:05;2.80;99.90
15638;DHT22;26604;53.596;10.042;2023-03-05T07:10:36;2.90;99.90
15638;DHT22;26604;53.596;10.042;2023-03-05T07:13:02;2.90;99.90
15638;DHT22;26604;53.596;10.042;2023-03-05T07:15:30;3.00;99.90
15638;DHT22;26604;53.596;10.042;2023-03-05T07:17:57;3.00;99.90
15638;DHT22;26604;53.596;10.042;2023-03-05T07:20:24;3.00;99.90
15638;DHT22;26604;53.596;10.042;2023-03-05T07:22:50;3.10;99.90
15638;DHT22;26604;53.596;10.042;2023-03-05T07:25:17;3.10;99.90
15638;DHT22;26604;53.596;10.042;2023-03-05T07:27:46;3.20;99.90
15638;DHT22;26604;53.596;10.042;2023-03-05T07:30:13;3.20;99.90
15638;DHT22;26604;53.596;10.042;2023-03-05T07:32:41;3.20;99.90
15638;DHT22;26604;53.596;10.042;2023-03-05T07:35:08;4.50;99.90
15638;DHT22;26604;53.596;10.042;2023-03-05T07:37:35;3.40;99.90
15638;DHT22;26604;53.596;10.042;2023-03-05T07:40:02;3.40;99.90
15638;DHT22;26604;53.596;10.042;2023-03-05T07:42:29;3.40;99.90
15638;DHT22;26604;53.596;10.042;2023-03-05T07:44:55;3.40;99.90
15638;DHT22;26604;53.596;10.042;2023-03-05T07:47:23;3.40;99.90
15638;DHT22;26604;53.596;10.042;2023-03-05T07:49:51;3.80;99.90
15638;DHT22;26604;53.596;10.042;2023-03-05T07:52:17;3.40;99.90
15638;DHT22;26604;53.596;10.042;2023-03-05T07:54:44;3.30;99.90
15638;DHT22;26604;53.596;10.042;2023-03-05T07:57:11;3.40;99.90
15638;DHT22;26604;53.596;10.042;2023-03-05T07:59:38;3.40;99.90
15638;DHT22;26604;53.596;10.042;2023-03-05T08:02:05;3.40;99.90
15638;DHT22;26604;53.596;10.042;2023-03-05T08:04:32;3.40;99.90
15638;DHT22;26604;53.596;10.042;2023-03-05T08:07:00;5.60;99.90
15638;DHT22;26604;53.596;10.042;2023-03-05T08:09:27;3.60;99.90
15638;DHT22;26604;53.596;10.042;2023-03-05T08:11:53;3.70;99.90
15638;DHT22;26604;53.596;10.042;2023-03-05T08:14:20;3.80;99.90
15638;DHT22;26604;53.596;10.042;2023-03-05T08:16:47;3.90;99.90
15638;DHT22;26604;53.596;10.042;2023-03-05T08:19:16;4.00;99.90
15638;DHT22;26604;53.596;10.042;2023-03-05T08:21:43;4.10;99.90
15638;DHT22;26604;53.596;10.042;2023-03-05T08:24:11;4.10;99.90
15638;DHT22;26604;53.596;10.042;2023-03-05T08:26:38;4.20;99.90
15638;DHT22;26604;53.596;10.042;2023-03-05T08:29:05;4.10;99.90
15638;DHT22;26604;53.596;10.042;2023-03-05T08:31:32;4.10;99.90
15638;DHT22;26604;53.596;10.042;2023-03-05T08:34:00;4.00;99.90
15638;DHT22;26604;53.596;10.042;2023-03-05T08:36:27;3.90;99.90
15638;DHT22;26604;53.596;10.042;2023-03-05T08:38:54;3.90;99.90
15638;DHT22;26604;53.596;10.042;2023-03-05T08:41:22;3.90;99.90
15638;DHT22;26604;53.596;10.042;2023-03-05T08:43:49;4.00;99.90
15638;DHT22;26604;53.596;10.042;2023-03-05T08:46:16;4.10;99.90
15638;DHT22;26604;53.596;10.042;2023-03-05T08:48:42;4.20;99.90
15638;DHT22;26604;53.596;10.042;2023-03-05T08:51:10;4.30;99.90
15638;DHT22;26604;53.596;10.042;2023-03-05T08:53:37;4.40;99.90
15638;DHT22;26604;53.596;10.042;2023-03-05T08:56:04;4.50;99.90
15638;DHT22;26604;53.596;10.042;2023-03-05T08:58:32;4.50;99.90
15638;DHT22;26604;53.596;10.042;2023-03-05T09:00:59;4.50;99.90
15638;DHT22;26604;53.596;10.042;2023-03-05T09:03:26;4.50;99.90
15638;DHT22;26604;53.596;10.042;2023-03-05T09:05:52;4.60;99.90
15638;DHT22;26604;53.596;10.042;2023-03-05T09:08:19;4.70;99.90
15638;DHT22;26604;53.596;10.042;2023-03-05T09:10:45;4.80;99.90
15638;DHT22;26604;53.596;10.042;2023-03-05T09:13:12;4.90;99.90
15638;DHT22;26604;53.596;10.042;2023-03-05T09:15:40;4.90;99.90
15638;DHT22;26604;53.596;10.042;2023-03-05T09:18:07;4.90;99.90
15638;DHT22;26604;53.596;10.042;2023-03-05T09:20:34;4.90;99.90
15638;DHT22;26604;53.596;10.042;2023-03-05T09:23:02;4.80;99.90
15638;DHT22;26604;53.596;10.042;2023-03-05T09:25:28;4.90;99.90
15638;DHT22;26604;53.596;10.042;2023-03-05T09:27:55;5.00;99.90
15638;DHT22;26604;53.596;10.042;2023-03-05T09:30:22;5.00;99.90
15638;DHT22;26604;53.596;10.042;2023-03-05T09:32:50;5.00;99.90
15638;DHT22;26604;53.596;10.042;2023-03-05T09:35:16;5.30;99.90
15638;DHT22;26604;53.596;10.042;2023-03-05T09:37:43;5.40;99.90
15638;DHT22;26604;53.596;10.042;2023-03-05T09:40:12;5.70;99.90
15638;DHT22;26604;53.596;10.042;2023-03-05T09:42:43;5.80;99.90
15638;DHT22;26604;53.596;10.042;2023-03-05T09:45:16;5.70;99.90
15638;DHT22;26604;53.596;10.042;2023-03-05T09:47:45;5.60;99.90
15638;DHT22;26604;53.596;10.042;2023-03-05T09:50:20;5.40;99.90
15638;DHT22;26604;53.596;10.042;2023-03-05T09:52:49;5.30;99.90
15638;DHT22;26604;53.596;10.042;2023-03-05T09:55:19;5.20;99.90
15638;DHT22;26604;53.596;10.042;2023-03-05T09:57:47;5.10;99.90
15638;DHT22;26604;53.596;10.042;2023-03-05T10:00:19;4.90;99.90
15638;DHT22;26604;53.596;10.042;2023-03-05T10:02:49;4.90;99.90
15638;DHT22;26604;53.596;10.042;2023-03-05T10:05:20;4.80;99.90
15638;DHT22;26604;53.596;10.042;2023-03-05T10:07:50;4.80;99.90
15638;DHT22;26604;53.596;10.042;2023-03-05T10:10:19;4.90;99.90
15638;DHT22;26604;53.596;10.042;2023-03-05T10:12:50;4.80;99.90
15638;DHT22;26604;53.596;10.042;2023-03-05T10:15:25;4.70;99.90
15638;DHT22;26604;53.596;10.042;2023-03-05T10:17:57;4.60;99.90
15638;DHT22;26604;53.596;10.042;2023-03-05T10:20:37;4.50;99.90
15638;DHT22;26604;53.596;10.042;2023-03-05T10:23:20;4.40;99.90
15638;DHT22;26604;53.596;10.042;2023-03-05T10:28:33;4.30;99.90
15638;DHT22;26604;53.596;10.042;2023-03-05T10:31:07;4.10;99.90
15638;DHT22;26604;53.596;10.042;2023-03-05T10:33:38;3.90;99.90
15638;DHT22;26604;53.596;10.042;2023-03-05T10:36:15;3.80;99.90
15638;DHT22;26604;53.596;10.042;2023-03-05T10:38:48;3.80;99.90
15638;DHT22;26604;53.596;10.042;2023-03-05T10:41:20;3.90;99.90
15638;DHT22;26604;53.596;10.042;2023-03-05T10:43:51;4.10;99.90
15638;DHT22;26604;53.596;10.042;2023-03-05T10:46:21;4.40;99.90
15638;DHT22;26604;53.596;10.042;2023-03-05T10:48:53;4.60;99.90
15638;DHT22;26604;53.596;10.042;2023-03-05T10:51:24;4.90;99.90
15638;DHT22;26604;53.596;10.042;2023-03-05T10:53:55;5.10;99.90
15638;DHT22;26604;53.596;10.042;2023-03-05T10:56:23;5.30;99.90
15638;DHT22;26604;53.596;10.042;2023-03-05T10:58:51;5.40;99.90
15638;DHT22;26604;53.596;10.042;2023-03-05T11:01:19;5.50;99.90
15638;DHT22;26604;53.596;10.042;2023-03-05T11:03:51;5.80;99.90
15638;DHT22;26604;53.596;10.042;2023-03-05T11:06:26;5.90;99.90
15638;DHT22;26604;53.596;10.042;2023-03-05T11:08:54;6.20;99.90
15638;DHT22;26604;53.596;10.042;2023-03-05T11:11:21;6.20;99.90
15638;DHT22;26604;53.596;10.042;2023-03-05T11:13:52;6.30;99.90
15638;DHT22;26604;53.596;10.042;2023-03-05T11:16:20;6.30;99.90
15638;DHT22;26604;53.596;10.042;2023-03-05T11:18:47;6.20;99.90
15638;DHT22;26604;53.596;10.042;2023-03-05T11:21:18;6.10;99.90
15638;DHT22;26604;53.596;10.042;2023-03-05T11:23:55;6.10;99.90
15638;DHT22;26604;53.596;10.042;2023-03-05T11:26:28;6.00;99.90
15638;DHT22;26604;53.596;10.042;2023-03-05T11:28:55;5.90;99.90
15638;DHT22;26604;53.596;10.042;2023-03-05T11:31:23;5.90;99.90
15638;DHT22;26604;53.596;10.042;2023-03-05T11:33:53;5.80;99.90
15638;DHT22;26604;53.596;10.042;2023-03-05T11:36:21;5.90;99.90
15638;DHT22;26604;53.596;10.042;2023-03-05T11:38:52;5.90;99.90
15638;DHT22;26604;53.596;10.042;2023-03-05T11:41:22;5.90;99.90
15638;DHT22;26604;53.596;10.042;2023-03-05T11:43:51;5.80;99.90
15638;DHT22;26604;53.596;10.042;2023-03-05T11:46:19;5.50;99.90
15638;DHT22;26604;53.596;10.042;2023-03-05T11:48:46;5.30;99.90
15638;DHT22;26604;53.596;10.042;2023-03-05T11:51:14;5.20;99.90
15638;DHT22;26604;53.596;10.042;2023-03-05T11:53:43;5.20;99.90
15638;DHT22;26604;53.596;10.042;2023-03-05T11:56:13;5.00;99.90
15638;DHT22;26604;53.596;10.042;2023-03-05T11:58:44;5.00;99.90
15638;DHT22;26604;53.596;10.042;2023-03-05T12:01:15;4.90;99.90
15638;DHT22;26604;53.596;10.042;2023-03-05T12:03:42;4.90;99.90
15638;DHT22;26604;53.596;10.042;2023-03-05T12:06:12;4.90;99.90
15638;DHT22;26604;53.596;10.042;2023-03-05T12:08:41;5.00;99.90
15638;DHT22;26604;53.596;10.042;2023-03-05T12:11:11;5.20;99.90
15638;DHT22;26604;53.596;10.042;2023-03-05T12:13:40;5.50;99.90
15638;DHT22;26604;53.596;10.042;2023-03-05T12:16:13;5.70;99.90
15638;DHT22;26604;53.596;10.042;2023-03-05T12:18:47;5.90;99.90
15638;DHT22;26604;53.596;10.042;2023-03-05T12:21:16;5.90;99.90
15638;DHT22;26604;53.596;10.042;2023-03-05T12:23:48;6.00;99.90
15638;DHT22;26604;53.596;10.042;2023-03-05T12:26:15;6.10;99.90
15638;DHT22;26604;53.596;10.042;2023-03-05T12:28:52;6.40;99.90
15638;DHT22;26604;53.596;10.042;2023-03-05T12:31:26;6.50;99.90
15638;DHT22;26604;53.596;10.042;2023-03-05T12:33:53;6.70;99.90
15638;DHT22;26604;53.596;10.042;2023-03-05T12:36:35;6.60;99.90
15638;DHT22;26604;53.596;10.042;2023-03-05T12:41:44;6.50;99.90
15638;DHT22;26604;53.596;10.042;2023-03-05T12:44:15;6.60;99.90
15638;DHT22;26604;53.596;10.042;2023-03-05T12:46:45;6.70;99.90
15638;DHT22;26604;53.596;10.042;2023-03-05T12:49:36;6.80;99.90
15638;DHT22;26604;53.596;10.042;2023-03-05T12:52:19;6.70;99.90
15638;DHT22;26604;53.596;10.042;2023-03-05T12:54:53;6.60;99.90
15638;DHT22;26604;53.596;10.042;2023-03-05T12:57:22;6.50;99.90
15638;DHT22;26604;53.596;10.042;2023-03-05T12:59:52;6.40;99.90
15638;DHT22;26604;53.596;10.042;2023-03-05T13:02:21;6.30;99.90
15638;DHT22;26604;53.596;10.042;2023-03-05T13:04:50;6.30;99.90
15638;DHT22;26604;53.596;10.042;2023-03-05T13:07:18;6.30;99.90
15638;DHT22;26604;53.596;10.042;2023-03-05T13:09:51;6.30;99.90
15638;DHT22;26604;53.596;10.042;2023-03-05T13:12:19;6.20;99.90
15638;DHT22;26604;53.596;10.042;2023-03-05T13:14:46;6.20;99.90
15638;DHT22;26604;53.596;10.042;2023-03-05T13:17:29;6.20;99.90
15638;DHT22;26604;53.596;10.042;2023-03-05T13:19:59;6.00;99.90
15638;DHT22;26604;53.596;10.042;2023-03-05T13:22:26;5.90;99.90
15638;DHT22;26604;53.596;10.042;2023-03-05T13:27:37;5.90;99.90
15638;DHT22;26604;53.596;10.042;2023-03-05T13:30:04;6.00;99.90
15638;DHT22;26604;53.596;10.042;2023-03-05T13:32:31;6.10;99.90
15638;DHT22;26604;53.596;10.042;2023-03-05T13:35:00;6.00;99.90
15638;DHT22;26604;53.596;10.042;2023-03-05T13:37:27;6.20;99.90
15638;DHT22;26604;53.596;10.042;2023-03-05T13:39:56;6.30;99.90
15638;DHT22;26604;53.596;10.042;2023-03-05T13:42:24;6.50;99.90
15638;DHT22;26604;53.596;10.042;2023-03-05T13:44:52;6.60;99.90
15638;DHT22;26604;53.596;10.042;2023-03-05T13:47:20;6.80;99.90
15638;DHT22;26604;53.596;10.042;2023-03-05T13:49:53;6.70;99.90
15638;DHT22;26604;53.596;10.042;2023-03-05T13:52:25;6.80;99.90
15638;DHT22;26604;53.596;10.042;2023-03-05T13:54:52;6.80;99.90
15638;DHT22;26604;53.596;10.042;2023-03-05T13:57:35;6.80;99.90
15638;DHT22;26604;53.596;10.042;2023-03-05T14:00:02;6.80;99.90
15638;DHT22;26604;53.596;10.042;2023-03-05T14:02:29;6.70;99.90
15638;DHT22;26604;53.596;10.042;2023-03-05T14:04:56;6.70;99.90
15638;DHT22;26604;53.596;10.042;2023-03-05T14:07:27;6.60;99.90
15638;DHT22;26604;53.596;10.042;2023-03-05T14:09:55;6.60;99.90
15638;DHT22;26604;53.596;10.042;2023-03-05T14:12:23;6.50;99.90
15638;DHT22;26604;53.596;10.042;2023-03-05T14:14:51;6.50;99.90
15638;DHT22;26604;53.596;10.042;2023-03-05T14:17:22;6.40;99.90
15638;DHT22;26604;53.596;10.042;2023-03-05T14:19:49;6.30;99.90
15638;DHT22;26604;53.596;10.042;2023-03-05T14:22:31;6.20;99.90
15638;DHT22;26604;53.596;10.042;2023-03-05T14:24:58;6.20;99.90
15638;DHT22;26604;53.596;10.042;2023-03-05T14:27:33;6.20;99.90
15638;DHT22;26604;53.596;10.042;2023-03-05T14:30:00;6.10;99.90
15638;DHT22;26604;53.596;10.042;2023-03-05T14:32:29;6.00;99.90
15638;DHT22;26604;53.596;10.042;2023-03-05T14:34:57;6.00;99.90
15638;DHT22;26604;53.596;10.042;2023-03-05T14:37:25;6.00;99.90
15638;DHT22;26604;53.596;10.042;2023-03-05T14:39:56;6.10;99.90
15638;DHT22;26604;53.596;10.042;2023-03-05T14:42:27;6.10;99.90
15638;DHT22;26604;53.596;10.042;2023-03-05T14:44:55;6.10;99.90
15638;DHT22;26604;53.596;10.042;2023-03-05T14:47:22;6.10;99.90
15638;DHT22;26604;53.596;10.042;2023-03-05T14:49:49;6.10;99.90
15638;DHT22;26604;53.596;10.042;2023-03-05T14:52:15;6.10;99.90
15638;DHT22;26604;53.596;10.042;2023-03-05T14:54:43;6.10;99.90
15638;DHT22;26604;53.596;10.042;2023-03-05T14:57:13;6.10;99.90
15638;DHT22;26604;53.596;10.042;2023-03-05T14:59:40;6.00;99.90
15638;DHT22;26604;53.596;10.042;2023-03-05T15:02:09;5.90;99.90
15638;DHT22;26604;53.596;10.042;2023-03-05T15:04:37;5.90;99.90
15638;DHT22;26604;53.596;10.042;2023-03-05T15:07:04;5.80;99.90
15638;DHT22;26604;53.596;10.042;2023-03-05T15:09:33;5.80;99.90
15638;DHT22;26604;53.596;10.042;2023-03-05T15:11:59;5.80;99.90
15638;DHT22;26604;53.596;10.042;2023-03-05T15:14:27;5.70;99.90
15638;DHT22;26604;53.596;10.042;2023-03-05T15:16:55;5.60;99.90
15638;DHT22;26604;53.596;10.042;2023-03-05T15:19:21;5.60;99.90
15638;DHT22;26604;53.596;10.042;2023-03-05T15:21:48;5.60;99.90
15638;DHT22;26604;53.596;10.042;2023-03-05T15:24:15;5.50;99.90
15638;DHT22;26604;53.596;10.042;2023-03-05T15:26:41;5.40;99.90
15638;DHT22;26604;53.596;10.042;2023-03-05T15:29:08;5.30;99.90
15638;DHT22;26604;53.596;10.042;2023-03-05T15:31:36;5.30;99.90
15638;DHT22;26604;53.596;10.042;2023-03-05T15:34:04;5.20;99.90
15638;DHT22;26604;53.596;10.042;2023-03-05T15:36:31;5.20;99.90
15638;DHT22;26604;53.596;10.042;2023-03-05T15:38:58;5.20;99.90
15638;DHT22;26604;53.596;10.042;2023-03-05T15:41:25;5.10;99.90
15638;DHT22;26604;53.596;10.042;2023-03-05T15:43:51;5.10;99.90
15638;DHT22;26604;53.596;10.042;2023-03-05T15:46:18;5.10;99.90